Aigaion — SYMC — position and weather

sailwx.info

Track history (hours):
 
Tides and Currents Weather Stations Pressure Air Temp Water Temp Dewpoint Dewpoint Depression Visibility Wind Speed Wind Dir Waves Ship Positions

Aigaion

Last reported at 2016-May-25 12:09 UTC. Time now 2016-May-27 04:34 UTC.
Position N 01°15' E 104°06'.

Length 289 m; draft 8.8 m.

Type: Cargo ship. MMSI: 240174000.

Date/timePositionNaut miles runAvg speedWind from/ knotsBaromVisibWave heightAir tempDewpointWater temp
2016-May-25 12:09N 01°15' E 104°06'6 9.4
2016-May-25 11:33N 01°16' E 104°01'1 1.4
2016-May-25 10:32N 01°17' E 103°60'0 0.0
2016-May-25 09:26N 01°17' E 103°60'0 0.1
2016-May-25 08:26N 01°17' E 104°00'0 0.1
2016-May-25 07:32N 01°17' E 104°00'0 0.1
2016-May-25 06:32N 01°17' E 104°00'0 0.2
2016-May-25 05:29N 01°17' E 104°00'0 0.1
2016-May-25 04:29N 01°17' E 104°00'0 0.0
2016-May-25 03:32N 01°17' E 104°00'0 0.1
2016-May-25 02:08N 01°17' E 104°00'0 0.0
2016-May-25 01:32N 01°17' E 104°00'0 0.0
2016-May-25 00:32N 01°17' E 104°00'0 0.0
2016-May-24 23:32N 01°17' E 104°00'0 0.0
2016-May-24 22:14N 01°17' E 104°00'0 0.0
2016-May-24 19:29N 01°17' E 104°00'0 0.0
2016-May-24 18:33N 01°17' E 104°00'2 1.6
2016-May-24 17:33N 01°16' E 103°59'1 0.8
2016-May-24 16:33N 01°16' E 103°58'4 3.8
2016-May-24 15:33N 01°16' E 104°02'  
Track history (hours):
 
Tides and Currents Weather Stations Pressure Air Temp Water Temp Dewpoint Dewpoint Depression Visibility Wind Speed Wind Dir Waves Ship Positions

Aigaion

Last reported at 2016-May-25 12:09 UTC. Time now 2016-May-27 04:34 UTC.
Position N 01°15' E 104°06'.

Length 289 m; draft 8.8 m.

Type: Cargo ship. MMSI: 240174000.

Date/timePositionNaut miles runAvg speedWind from/ knotsBaromVisibWave heightAir tempDewpointWater temp
2016-May-25 12:09N 01°15' E 104°06'6 9.4
2016-May-25 11:33N 01°16' E 104°01'1 1.4
2016-May-25 10:32N 01°17' E 103°60'0 0.0
2016-May-25 09:26N 01°17' E 103°60'0 0.1
2016-May-25 08:26N 01°17' E 104°00'0 0.1
2016-May-25 07:32N 01°17' E 104°00'0 0.1
2016-May-25 06:32N 01°17' E 104°00'0 0.2
2016-May-25 05:29N 01°17' E 104°00'0 0.1
2016-May-25 04:29N 01°17' E 104°00'0 0.0
2016-May-25 03:32N 01°17' E 104°00'0 0.1
2016-May-25 02:08N 01°17' E 104°00'0 0.0
2016-May-25 01:32N 01°17' E 104°00'0 0.0
2016-May-25 00:32N 01°17' E 104°00'0 0.0
2016-May-24 23:32N 01°17' E 104°00'0 0.0
2016-May-24 22:14N 01°17' E 104°00'0 0.0
2016-May-24 19:29N 01°17' E 104°00'0 0.0
2016-May-24 18:33N 01°17' E 104°00'2 1.6
2016-May-24 17:33N 01°16' E 103°59'1 0.8
2016-May-24 16:33N 01°16' E 103°58'4 3.8
2016-May-24 15:33N 01°16' E 104°02'  

Dump ship's entire track history